createdAt,value
2023-05-22T00:00:19.178Z,14.53
2023-05-22T00:03:08.506Z,14.50
2023-05-22T00:05:44.261Z,14.48
2023-05-22T00:08:21.598Z,14.44
2023-05-22T00:10:49.875Z,14.39
2023-05-22T00:16:10.084Z,14.30
2023-05-22T00:18:55.827Z,14.26
2023-05-22T00:21:28.971Z,14.23
2023-05-22T00:24:13.455Z,14.20
2023-05-22T00:26:43.977Z,14.17
2023-05-22T00:29:16.299Z,14.12
2023-05-22T00:31:52.704Z,14.09
2023-05-22T00:34:25.312Z,14.06
2023-05-22T00:36:55.625Z,14.04
2023-05-22T00:39:23.928Z,14.03
2023-05-22T00:41:57.189Z,14.00
2023-05-22T00:44:27.447Z,13.98
2023-05-22T00:47:03.501Z,13.93
2023-05-22T00:49:38.926Z,13.89
2023-05-22T00:52:09.508Z,13.88
2023-05-22T00:54:52.688Z,13.84
2023-05-22T00:57:23.285Z,13.81
2023-05-22T00:59:51.689Z,13.78
2023-05-22T01:02:22.665Z,13.77
2023-05-22T01:04:56.897Z,13.73
2023-05-22T01:07:32.418Z,13.70
2023-05-22T01:10:02.736Z,13.67
2023-05-22T01:12:59.841Z,13.65
2023-05-22T01:15:48.950Z,13.61
2023-05-22T01:21:46.494Z,13.55
2023-05-22T01:25:34.926Z,13.54
2023-05-22T01:28:26.857Z,13.48
2023-05-22T01:31:07.646Z,13.45
2023-05-22T01:33:56.686Z,13.44
2023-05-22T01:36:39.113Z,13.42
2023-05-22T01:39:08.605Z,13.42
2023-05-22T01:41:57.606Z,13.41
2023-05-22T01:44:34.935Z,13.40
2023-05-22T01:47:30.220Z,13.41
2023-05-22T01:49:57.847Z,13.37
2023-05-22T01:52:54.616Z,13.33
2023-05-22T01:55:34.837Z,13.30
2023-05-22T01:58:23.501Z,13.23
2023-05-22T02:00:54.238Z,13.21
2023-05-22T02:04:03.880Z,13.16
2023-05-22T02:06:33.050Z,13.09
2023-05-22T02:09:02.419Z,13.03
2023-05-22T02:11:34.265Z,12.98
2023-05-22T02:14:01.697Z,12.92
2023-05-22T02:16:29.848Z,12.86
2023-05-22T02:21:48.990Z,12.80
2023-05-22T02:24:15.872Z,12.76
2023-05-22T02:26:53.366Z,12.72
2023-05-22T02:29:23.828Z,12.68
2023-05-22T02:31:52.871Z,12.68
2023-05-22T02:34:20.689Z,12.66
2023-05-22T02:36:50.859Z,12.63
2023-05-22T02:39:18.812Z,12.61
2023-05-22T02:41:45.704Z,12.59
2023-05-22T02:44:14.983Z,12.56
2023-05-22T02:46:43.334Z,12.54
2023-05-22T02:49:10.397Z,12.52
2023-05-22T02:51:37.702Z,12.49
2023-05-22T02:54:19.259Z,12.47
2023-05-22T02:56:46.070Z,12.46
2023-05-22T02:59:17.442Z,12.44
2023-05-22T03:02:08.262Z,12.45
2023-05-22T03:04:38.854Z,12.45
2023-05-22T03:07:11.797Z,12.45
2023-05-22T03:09:39.594Z,12.45
2023-05-22T03:12:06.904Z,12.44
2023-05-22T03:14:39.020Z,12.44
2023-05-22T03:17:08.224Z,12.45
2023-05-22T03:19:35.271Z,12.45
2023-05-22T03:22:02.768Z,12.46
2023-05-22T03:24:29.932Z,12.49
2023-05-22T03:26:56.926Z,12.52
2023-05-22T03:29:35.901Z,12.56
2023-05-22T03:32:03.558Z,12.60
2023-05-22T03:34:33.589Z,12.64
2023-05-22T03:37:05.507Z,12.66
2023-05-22T03:39:33.713Z,12.67
2023-05-22T03:42:06.118Z,12.69
2023-05-22T03:44:53.832Z,12.72
2023-05-22T03:47:30.979Z,12.80
2023-05-22T03:50:01.759Z,12.88
2023-05-22T03:52:31.108Z,12.97
2023-05-22T03:55:18.390Z,13.07
2023-05-22T03:57:45.584Z,13.14
2023-05-22T04:00:16.575Z,13.20
2023-05-22T04:02:44.509Z,13.27
2023-05-22T04:05:11.576Z,13.33
2023-05-22T04:07:38.456Z,13.40
2023-05-22T04:10:09.560Z,13.51
2023-05-22T04:12:36.330Z,13.57
2023-05-22T04:15:03.439Z,13.59
2023-05-22T04:17:32.805Z,13.59
2023-05-22T04:20:00.098Z,13.63
2023-05-22T04:22:29.543Z,13.71
2023-05-22T04:24:56.777Z,13.77
2023-05-22T04:27:26.045Z,13.82
2023-05-22T04:30:03.170Z,13.85
2023-05-22T04:32:30.073Z,13.89
2023-05-22T04:35:18.148Z,13.95
2023-05-22T04:37:45.202Z,13.94
2023-05-22T04:40:14.535Z,13.95
2023-05-22T04:42:44.234Z,13.97
2023-05-22T04:45:13.936Z,14.01
2023-05-22T04:47:41.039Z,14.05
2023-05-22T04:50:23.455Z,14.10
2023-05-22T04:52:50.305Z,14.15
2023-05-22T04:55:18.477Z,14.21
2023-05-22T04:57:46.428Z,14.28
2023-05-22T05:00:16.181Z,14.35
2023-05-22T05:03:07.627Z,14.45
2023-05-22T05:05:36.648Z,14.49
2023-05-22T05:08:05.371Z,14.54
2023-05-22T05:10:34.741Z,14.61
2023-05-22T05:13:03.911Z,14.69
2023-05-22T05:15:35.846Z,14.76
2023-05-22T05:18:20.567Z,14.86
2023-05-22T05:20:49.576Z,14.98
2023-05-22T05:23:17.641Z,15.08
2023-05-22T05:28:29.448Z,15.30
2023-05-22T05:31:07.138Z,15.42
2023-05-22T05:33:56.093Z,15.53
2023-05-22T05:37:02.376Z,15.67
2023-05-22T05:39:33.672Z,15.77
2023-05-22T05:42:03.267Z,15.89
2023-05-22T05:44:47.947Z,15.97
2023-05-22T05:47:36.476Z,16.07
2023-05-22T05:50:03.924Z,16.17
2023-05-22T05:52:34.064Z,16.26
2023-05-22T05:55:09.318Z,16.36
2023-05-22T05:57:36.215Z,16.45
2023-05-22T06:00:30.169Z,16.56
2023-05-22T06:03:02.291Z,16.66
2023-05-22T06:05:48.060Z,16.77
2023-05-22T06:08:39.153Z,16.88
2023-05-22T06:11:07.361Z,16.95
2023-05-22T06:13:42.979Z,17.04
2023-05-22T06:16:11.873Z,17.13
2023-05-22T06:18:42.920Z,17.21
2023-05-22T06:21:12.419Z,17.27
2023-05-22T06:23:42.269Z,17.36
2023-05-22T06:26:17.980Z,17.46
2023-05-22T06:28:45.329Z,17.56
2023-05-22T06:31:12.128Z,17.65
2023-05-22T06:33:42.833Z,17.75
2023-05-22T06:36:13.119Z,17.88
2023-05-22T06:38:40.034Z,17.97
2023-05-22T06:41:12.202Z,18.06
2023-05-22T06:43:48.250Z,18.17
2023-05-22T06:46:16.026Z,18.28
2023-05-22T06:48:54.323Z,18.41
2023-05-22T06:51:45.680Z,18.53
2023-05-22T06:54:13.606Z,18.63
2023-05-22T06:56:42.143Z,18.71
2023-05-22T06:59:37.063Z,18.82
2023-05-22T07:02:07.219Z,18.93
2023-05-22T07:04:56.953Z,19.05
2023-05-22T07:07:30.997Z,19.12
2023-05-22T07:09:57.975Z,19.22
2023-05-22T07:12:27.522Z,19.31
2023-05-22T07:14:54.802Z,19.38
2023-05-22T07:17:23.044Z,19.47
2023-05-22T07:19:50.411Z,19.58
2023-05-22T07:22:17.091Z,19.69
2023-05-22T07:24:44.565Z,19.78
2023-05-22T07:27:40.469Z,19.87
2023-05-22T07:30:08.089Z,19.95
2023-05-22T07:32:36.244Z,20.03
2023-05-22T07:35:04.083Z,20.13
2023-05-22T07:37:31.156Z,20.20
2023-05-22T07:39:59.201Z,20.27
2023-05-22T07:42:28.659Z,20.33
2023-05-22T07:45:00.899Z,20.43
2023-05-22T07:47:28.230Z,20.50
2023-05-22T07:49:55.384Z,20.58
2023-05-22T07:52:23.666Z,20.66
2023-05-22T07:54:51.039Z,20.78
2023-05-22T07:57:18.293Z,20.87
2023-05-22T07:59:45.266Z,20.92
2023-05-22T08:02:12.163Z,21.02
2023-05-22T08:04:39.309Z,21.11
2023-05-22T08:07:06.518Z,21.20
2023-05-22T08:09:33.708Z,21.26
2023-05-22T08:12:00.638Z,21.33
2023-05-22T08:14:38.156Z,21.39
2023-05-22T08:17:09.043Z,21.46
2023-05-22T08:19:36.151Z,21.50
2023-05-22T08:22:03.186Z,21.57
2023-05-22T08:24:30.751Z,21.56
2023-05-22T08:26:58.180Z,21.62
2023-05-22T08:29:25.055Z,21.65
2023-05-22T08:31:53.337Z,21.66
2023-05-22T08:34:20.133Z,21.69
2023-05-22T08:36:48.394Z,21.72
2023-05-22T08:39:15.656Z,21.79
2023-05-22T08:41:43.353Z,21.85
2023-05-22T08:44:12.881Z,21.91
2023-05-22T08:46:43.717Z,22.00
2023-05-22T08:49:13.973Z,22.02
2023-05-22T08:51:41.857Z,22.04
2023-05-22T08:54:09.342Z,22.11
2023-05-22T08:56:39.778Z,22.18
2023-05-22T08:59:22.802Z,22.23
2023-05-22T09:01:51.807Z,22.33
2023-05-22T09:04:22.634Z,22.42
2023-05-22T09:06:50.065Z,22.50
2023-05-22T09:09:17.330Z,22.57
2023-05-22T09:11:43.969Z,22.64
2023-05-22T09:14:41.354Z,22.76
2023-05-22T09:17:10.744Z,22.84
2023-05-22T09:19:43.157Z,22.94
2023-05-22T09:22:11.665Z,23.04
2023-05-22T09:24:44.205Z,23.11
2023-05-22T09:27:23.168Z,23.14
2023-05-22T09:29:52.211Z,23.20
2023-05-22T09:32:19.615Z,23.26
2023-05-22T09:34:50.428Z,23.31
2023-05-22T09:37:20.728Z,23.34
2023-05-22T09:39:47.804Z,23.40
2023-05-22T09:42:16.938Z,23.48
2023-05-22T09:45:02.908Z,23.58
2023-05-22T09:47:29.964Z,23.66
2023-05-22T09:50:00.216Z,23.75
2023-05-22T09:52:28.589Z,23.82
2023-05-22T09:54:56.141Z,23.86
2023-05-22T09:57:26.095Z,23.93
2023-05-22T09:59:57.603Z,24.02
2023-05-22T10:02:26.676Z,24.08
2023-05-22T10:04:56.972Z,24.14
2023-05-22T10:07:37.248Z,24.23
2023-05-22T10:10:10.769Z,24.30
2023-05-22T10:13:04.923Z,24.35
2023-05-22T10:15:31.946Z,24.46
2023-05-22T10:18:00.189Z,24.49
2023-05-22T10:20:28.901Z,24.55
2023-05-22T10:22:56.425Z,24.64
2023-05-22T10:25:30.403Z,24.74
2023-05-22T10:27:59.080Z,24.76
2023-05-22T10:30:42.017Z,24.81
2023-05-22T10:33:41.031Z,24.94
2023-05-22T10:36:48.287Z,24.99
2023-05-22T10:39:41.036Z,25.11
2023-05-22T10:42:14.244Z,25.19
2023-05-22T10:44:42.826Z,25.28
2023-05-22T10:47:12.134Z,25.36
2023-05-22T10:49:44.545Z,25.46
2023-05-22T10:52:14.021Z,25.54
2023-05-22T10:54:44.511Z,25.62
2023-05-22T10:57:18.374Z,25.67
2023-05-22T11:00:10.257Z,25.72
2023-05-22T11:02:45.043Z,25.73
2023-05-22T11:05:22.142Z,25.79
2023-05-22T11:07:48.986Z,25.77
2023-05-22T11:10:26.509Z,25.76
2023-05-22T11:13:11.470Z,25.79
2023-05-22T11:15:45.103Z,25.89
2023-05-22T11:18:16.692Z,26.04
2023-05-22T11:20:43.851Z,26.20
2023-05-22T11:23:11.249Z,26.24
2023-05-22T11:25:40.504Z,26.32
2023-05-22T11:28:15.722Z,26.46
2023-05-22T11:31:03.179Z,26.58
2023-05-22T11:33:30.160Z,26.53
2023-05-22T11:35:57.117Z,26.42
2023-05-22T11:38:25.796Z,26.29
2023-05-22T11:40:52.639Z,26.16
2023-05-22T11:43:33.458Z,26.19
2023-05-22T11:46:08.729Z,26.19
2023-05-22T11:48:36.236Z,26.14
2023-05-22T11:51:03.486Z,26.13
2023-05-22T11:53:34.177Z,26.22
2023-05-22T11:56:02.889Z,26.42
2023-05-22T11:58:30.432Z,26.57
2023-05-22T12:01:01.969Z,26.73
2023-05-22T12:03:30.062Z,26.80
2023-05-22T12:05:57.580Z,26.89
2023-05-22T12:08:25.088Z,27.05
2023-05-22T12:10:53.629Z,27.18
2023-05-22T12:13:26.304Z,27.28
2023-05-22T12:16:00.446Z,27.52
2023-05-22T12:18:35.254Z,28.62
2023-05-22T12:21:06.045Z,30.01
2023-05-22T12:23:32.855Z,31.35
2023-05-22T12:26:01.732Z,32.48
2023-05-22T12:28:31.536Z,33.16
2023-05-22T12:30:59.610Z,33.62
2023-05-22T12:33:30.689Z,33.72
2023-05-22T12:35:58.145Z,32.93
2023-05-22T12:38:30.397Z,32.45
2023-05-22T12:40:57.730Z,33.26
2023-05-22T12:43:29.332Z,34.48
2023-05-22T12:45:56.041Z,35.59
2023-05-22T12:48:22.920Z,36.56
2023-05-22T12:50:49.581Z,37.31
2023-05-22T12:53:16.500Z,37.99
2023-05-22T12:55:43.290Z,38.68
2023-05-22T12:58:10.593Z,39.24
2023-05-22T13:00:37.753Z,39.89
2023-05-22T13:03:06.011Z,40.19
2023-05-22T13:05:45.422Z,40.12
2023-05-22T13:08:13.442Z,40.02
2023-05-22T13:10:40.278Z,39.00
2023-05-22T13:13:07.057Z,37.52
2023-05-22T13:15:35.586Z,36.18
2023-05-22T13:18:02.519Z,35.04
2023-05-22T13:20:29.753Z,33.98
2023-05-22T13:25:39.167Z,32.60
2023-05-22T13:28:06.785Z,32.78
2023-05-22T13:30:33.862Z,33.38
2023-05-22T13:35:27.590Z,33.09
2023-05-22T13:37:54.542Z,33.15
2023-05-22T13:40:21.433Z,34.24
2023-05-22T13:42:48.243Z,35.74
2023-05-22T13:45:15.154Z,37.12
2023-05-22T13:47:49.209Z,38.31
2023-05-22T13:50:16.277Z,39.19
2023-05-22T13:52:43.302Z,39.91
2023-05-22T13:55:10.268Z,39.60
2023-05-22T13:57:48.915Z,39.41
2023-05-22T14:00:16.161Z,40.01
2023-05-22T14:02:53.523Z,39.73
2023-05-22T14:05:20.536Z,38.78
2023-05-22T14:07:47.387Z,38.60
2023-05-22T14:10:22.352Z,38.62
2023-05-22T14:12:49.117Z,39.32
2023-05-22T14:15:16.723Z,40.12
2023-05-22T14:17:43.509Z,40.77
2023-05-22T14:20:10.765Z,41.50
2023-05-22T14:22:55.347Z,42.24
2023-05-22T14:25:29.168Z,42.86
2023-05-22T14:27:56.082Z,43.27
2023-05-22T14:30:23.059Z,43.51
2023-05-22T14:32:50.277Z,43.29
2023-05-22T14:35:17.140Z,43.22
2023-05-22T14:37:45.589Z,43.46
2023-05-22T14:40:12.504Z,43.71
2023-05-22T14:42:39.310Z,43.84
2023-05-22T14:45:06.530Z,43.77
2023-05-22T14:47:33.385Z,43.17
2023-05-22T14:50:14.864Z,42.43
2023-05-22T14:52:46.295Z,41.72
2023-05-22T14:55:13.185Z,41.36
2023-05-22T14:57:39.964Z,41.18
2023-05-22T15:00:09.215Z,41.40
2023-05-22T15:02:36.591Z,41.53
2023-05-22T15:05:03.959Z,41.31
2023-05-22T15:07:43.138Z,41.39
2023-05-22T15:10:11.809Z,41.80
2023-05-22T15:12:38.768Z,42.29
2023-05-22T15:15:06.023Z,42.68
2023-05-22T15:17:32.869Z,42.57
2023-05-22T15:19:59.944Z,42.51
2023-05-22T15:22:26.785Z,42.16
2023-05-22T15:25:07.528Z,41.95
2023-05-22T15:27:35.527Z,42.00
2023-05-22T15:30:03.857Z,41.56
2023-05-22T15:32:32.132Z,41.16
2023-05-22T15:34:59.003Z,40.56
2023-05-22T15:37:27.646Z,40.04
2023-05-22T15:39:55.023Z,40.01
2023-05-22T15:42:21.696Z,40.61
2023-05-22T15:44:48.521Z,41.05
2023-05-22T15:47:16.051Z,41.04
2023-05-22T15:49:49.801Z,40.67
2023-05-22T15:52:16.730Z,40.09
2023-05-22T15:54:43.609Z,39.70
2023-05-22T15:57:10.504Z,39.79
2023-05-22T15:59:37.368Z,39.72
2023-05-22T16:02:09.069Z,39.57
2023-05-22T16:04:35.964Z,39.21
2023-05-22T16:07:03.341Z,38.79
2023-05-22T16:09:35.478Z,38.36
2023-05-22T16:12:03.494Z,38.09
2023-05-22T16:14:30.665Z,37.86
2023-05-22T16:16:57.423Z,37.67
2023-05-22T16:19:24.254Z,37.71
2023-05-22T16:21:51.138Z,37.75
2023-05-22T16:24:31.951Z,37.08
2023-05-22T16:26:59.458Z,36.46
2023-05-22T16:29:26.716Z,36.49
2023-05-22T16:31:56.316Z,36.84
2023-05-22T16:34:23.152Z,37.27
2023-05-22T16:37:04.522Z,37.39
2023-05-22T16:39:31.317Z,37.46
2023-05-22T16:42:26.705Z,37.11
2023-05-22T16:44:53.554Z,36.93
2023-05-22T16:47:21.383Z,36.65
2023-05-22T16:49:57.756Z,36.41
2023-05-22T16:52:25.994Z,36.35
2023-05-22T16:54:54.129Z,36.01
2023-05-22T16:57:20.933Z,35.78
2023-05-22T16:59:51.834Z,35.74
2023-05-22T17:02:19.227Z,35.60
2023-05-22T17:04:46.452Z,35.43
2023-05-22T17:07:14.179Z,35.24
2023-05-22T17:09:41.256Z,34.97
2023-05-22T17:12:10.376Z,34.55
2023-05-22T17:14:37.303Z,34.11
2023-05-22T17:17:18.576Z,33.70
2023-05-22T17:19:45.724Z,33.37
2023-05-22T17:22:12.506Z,33.00
2023-05-22T17:24:39.277Z,32.46
2023-05-22T17:27:06.111Z,31.87
2023-05-22T17:29:39.060Z,31.22
2023-05-22T17:32:06.251Z,30.88
2023-05-22T17:34:36.426Z,30.71
2023-05-22T17:37:03.296Z,30.43
2023-05-22T17:39:32.417Z,30.16
2023-05-22T17:42:00.499Z,29.84
2023-05-22T17:44:27.882Z,29.44
2023-05-22T17:46:54.909Z,29.01
2023-05-22T17:49:21.847Z,28.57
2023-05-22T17:51:49.379Z,28.03
2023-05-22T17:54:25.115Z,27.49
2023-05-22T17:56:51.975Z,26.94
2023-05-22T17:59:18.801Z,26.44
2023-05-22T18:01:47.218Z,26.01
2023-05-22T18:04:14.619Z,25.49
2023-05-22T18:06:41.684Z,24.95
2023-05-22T18:09:09.417Z,24.43
2023-05-22T18:11:36.591Z,23.87
2023-05-22T18:14:11.533Z,23.43
2023-05-22T18:16:38.453Z,23.05
2023-05-22T18:19:05.784Z,22.69
2023-05-22T18:21:35.514Z,22.33
2023-05-22T18:24:02.842Z,21.98
2023-05-22T18:26:29.688Z,21.65
2023-05-22T18:28:56.809Z,21.36
2023-05-22T18:31:23.729Z,21.06
2023-05-22T18:33:50.423Z,20.85
2023-05-22T18:36:17.343Z,20.66
2023-05-22T18:38:44.368Z,20.47
2023-05-22T18:41:11.046Z,20.30
2023-05-22T18:43:38.317Z,20.14
2023-05-22T18:46:05.339Z,19.98
2023-05-22T18:48:33.235Z,19.85
2023-05-22T18:51:16.086Z,19.71
2023-05-22T18:53:55.925Z,19.56
2023-05-22T18:56:22.941Z,19.42
2023-05-22T18:58:56.038Z,19.29
2023-05-22T19:01:23.385Z,19.20
2023-05-22T19:03:50.421Z,19.13
2023-05-22T19:06:25.664Z,19.03
2023-05-22T19:08:52.426Z,18.95
2023-05-22T19:11:19.279Z,18.85
2023-05-22T19:13:46.110Z,18.76
2023-05-22T19:16:13.412Z,18.67
2023-05-22T19:18:40.360Z,18.61
2023-05-22T19:21:07.149Z,18.54
2023-05-22T19:23:52.044Z,18.45
2023-05-22T19:26:19.118Z,18.35
2023-05-22T19:28:59.322Z,18.24
2023-05-22T19:31:30.108Z,18.19
2023-05-22T19:34:08.101Z,18.13
2023-05-22T19:36:34.897Z,18.09
2023-05-22T19:39:02.301Z,18.03
2023-05-22T19:41:37.973Z,17.93
2023-05-22T19:44:07.463Z,17.89
2023-05-22T19:46:41.515Z,17.83
2023-05-22T19:49:08.773Z,17.79
2023-05-22T19:51:37.377Z,17.73
2023-05-22T19:54:04.757Z,17.63
2023-05-22T19:56:34.410Z,17.57
2023-05-22T19:59:07.145Z,17.49
2023-05-22T20:01:35.550Z,17.42
2023-05-22T20:04:05.697Z,17.35
2023-05-22T20:06:37.929Z,17.25
2023-05-22T20:09:09.815Z,17.17
2023-05-22T20:11:43.561Z,17.10
2023-05-22T20:14:20.681Z,17.09
2023-05-22T20:16:47.890Z,17.03
2023-05-22T20:19:18.667Z,16.91
2023-05-22T20:21:49.960Z,16.85
2023-05-22T20:24:23.793Z,16.75
2023-05-22T20:27:09.730Z,16.69
2023-05-22T20:31:01.250Z,16.61
2023-05-22T20:33:45.760Z,16.53
2023-05-22T20:36:47.291Z,16.49
2023-05-22T20:43:25.567Z,16.53
2023-05-22T20:50:14.700Z,16.56
2023-05-22T21:00:50.317Z,16.41
2023-05-22T21:03:47.459Z,16.37
2023-05-22T21:06:48.058Z,16.36
2023-05-22T21:09:18.076Z,16.33
2023-05-22T21:11:52.711Z,16.22
2023-05-22T21:14:29.839Z,16.20
2023-05-22T21:17:21.647Z,16.19
2023-05-22T21:19:56.991Z,16.19
2023-05-22T21:22:28.481Z,16.17
2023-05-22T21:24:56.005Z,16.13
2023-05-22T21:27:36.161Z,16.06
2023-05-22T21:30:03.127Z,16.01
2023-05-22T21:32:37.174Z,16.01
2023-05-22T21:35:09.509Z,15.95
2023-05-22T21:37:42.092Z,15.90
2023-05-22T21:40:09.413Z,15.91
2023-05-22T21:42:46.580Z,15.87
2023-05-22T21:45:16.367Z,15.81
2023-05-22T21:47:44.648Z,15.80
2023-05-22T21:50:15.430Z,15.78
2023-05-22T21:52:44.193Z,15.73
2023-05-22T21:55:12.259Z,15.68
2023-05-22T21:57:39.438Z,15.65
2023-05-22T22:00:09.366Z,15.59
2023-05-22T22:02:57.748Z,15.52
2023-05-22T22:05:30.694Z,15.50
2023-05-22T22:07:59.228Z,15.48
2023-05-22T22:10:29.143Z,15.45
2023-05-22T22:12:59.604Z,15.37
2023-05-22T22:15:33.995Z,15.32
2023-05-22T22:18:04.432Z,15.27
2023-05-22T22:20:44.093Z,15.20
2023-05-22T22:23:12.151Z,15.14
2023-05-22T22:25:40.804Z,15.10
2023-05-22T22:28:11.474Z,15.06
2023-05-22T22:30:39.153Z,15.02
2023-05-22T22:33:23.670Z,14.96
2023-05-22T22:35:53.302Z,14.88
2023-05-22T22:38:24.705Z,14.83
2023-05-22T22:41:10.343Z,14.76
2023-05-22T22:43:37.757Z,14.70
2023-05-22T22:46:05.283Z,14.64
2023-05-22T22:48:35.157Z,14.58
2023-05-22T22:51:06.095Z,14.53
2023-05-22T22:53:34.004Z,14.48
2023-05-22T22:56:02.868Z,14.42
2023-05-22T22:58:32.797Z,14.38
2023-05-22T23:01:10.668Z,14.33
2023-05-22T23:03:44.861Z,14.28
2023-05-22T23:06:18.792Z,14.23
2023-05-22T23:08:50.047Z,14.18
2023-05-22T23:14:11.505Z,14.06
2023-05-22T23:16:47.341Z,14.03
2023-05-22T23:19:45.506Z,14.00
2023-05-22T23:22:13.900Z,13.98
2023-05-22T23:24:54.108Z,13.97
2023-05-22T23:27:26.937Z,13.95
2023-05-22T23:30:04.194Z,13.95
2023-05-22T23:32:36.328Z,13.93
2023-05-22T23:35:09.003Z,13.94
2023-05-22T23:37:36.496Z,13.96
2023-05-22T23:40:18.743Z,13.97
2023-05-22T23:42:46.520Z,13.99
2023-05-22T23:45:14.322Z,14.02
2023-05-22T23:47:42.697Z,14.05
2023-05-22T23:53:08.342Z,14.11
2023-05-22T23:55:35.236Z,14.14
2023-05-22T23:58:02.427Z,14.13
